Station Historical Data
Daily Summary for January 7, 2018 Units:  English    Metric   Both
« Previous Day
Next Day »
Daily Weekly Monthly Yearly Custom
  High: Low: Average:
Temperature: TemperatureF °F -4.7 °F 10 °F
Dew Point: DewpointF °F -10.3 °F 0.2 °F
Humidity: Humidity% 48% 65%
Wind Speed: WindSpeedMPHmph 0.0mph 4.5mph
Wind Gust: WindSpeedGustMPHmph - -
Wind- - SSW
Pressure: PressureIn in 30.09 in -
Precipitation: 0.00 in    
Historical Graphs
 
 
Tabular Data for January 7, 2018
Time Temperature Dew Point Pressure Wind Wind Speed Wind Gust Humidity Rainfall Rate (Hourly)
TemperatureF °F DewpointF °F PressureIn in Calm     Humidity% HourlyPrecipIn in
00:04 2.0 °F -4.7 °F 30.61 in West 3.0 mph 7.0 mph 73% 0.00 in
00:09 2.0 °F -4.7 °F 30.61 in WSW 3.0 mph 7.0 mph 73% 0.00 in
00:14 2.0 °F -4.7 °F 30.61 in WSW 3.0 mph 8.0 mph 73% 0.00 in
00:19 2.0 °F -4.7 °F 30.61 in WSW 2.0 mph 8.0 mph 73% 0.00 in
00:24 2.0 °F -4.7 °F 30.61 in WSW 3.0 mph 10.0 mph 73% 0.00 in
00:29 1.9 °F -4.8 °F 30.61 in West 1.0 mph 6.0 mph 73% 0.00 in
00:34 1.8 °F -4.9 °F 30.61 in West 2.0 mph 6.0 mph 73% 0.00 in
00:44 1.6 °F -5.1 °F 30.61 in WSW 2.0 mph 6.0 mph 73% 0.00 in
00:54 1.5 °F -5.2 °F 30.60 in WSW 2.0 mph 5.0 mph 73% 0.00 in
00:59 1.4 °F -5.3 °F 30.60 in West 2.0 mph 5.0 mph 73% 0.00 in
01:05 1.4 °F -5.3 °F 30.60 in West 2.0 mph 4.0 mph 73% 0.00 in
01:10 1.3 °F -5.3 °F 30.61 in WSW 2.0 mph 4.0 mph 73% 0.00 in
01:20 1.4 °F -5.3 °F 30.61 in WSW 2.0 mph 4.0 mph 73% 0.00 in
01:25 1.4 °F -5.3 °F 30.61 in WSW 4.0 mph 5.0 mph 73% 0.00 in
01:30 1.4 °F -5.3 °F 30.61 in WSW 2.0 mph 5.0 mph 73% 0.00 in
01:35 1.5 °F -4.9 °F 30.60 in WSW 2.0 mph 4.0 mph 74% 0.00 in
01:40 1.5 °F -4.9 °F 30.60 in WSW 1.0 mph 3.0 mph 74% 0.00 in
01:45 1.5 °F -4.9 °F 30.60 in WSW 1.0 mph 3.0 mph 74% 0.00 in
01:50 1.5 °F -4.9 °F 30.60 in WSW 2.0 mph 3.0 mph 74% 0.00 in
01:55 1.6 °F -4.8 °F 30.60 in WSW 1.0 mph 3.0 mph 74% 0.00 in
02:00 1.5 °F -4.9 °F 30.60 in SSE 2.0 mph 4.0 mph 74% 0.00 in
02:05 1.4 °F -5.0 °F 30.60 in SSE 1.0 mph 4.0 mph 74% 0.00 in
02:10 1.4 °F -5.0 °F 30.60 in South 3.0 mph 4.0 mph 74% 0.00 in
02:15 1.2 °F -5.2 °F 30.60 in South 2.0 mph 5.0 mph 74% 0.00 in
02:20 1.0 °F -5.4 °F 30.60 in South 2.0 mph 5.0 mph 74% 0.00 in
02:25 0.9 °F -5.5 °F 30.59 in South 1.0 mph 4.0 mph 74% 0.00 in
02:30 0.7 °F -5.6 °F 30.60 in South 1.0 mph 4.0 mph 74% 0.00 in
02:35 0.4 °F -5.9 °F 30.59 in South 2.0 mph 4.0 mph 74% 0.00 in
02:45 -0.1 °F -6.4 °F 30.60 in South 2.0 mph 3.0 mph 74% 0.00 in
02:50 -0.3 °F -6.6 °F 30.59 in South 1.0 mph 3.0 mph 74% 0.00 in
02:55 -0.5 °F -6.8 °F 30.59 in Calm     74% 0.00 in
03:00 -0.7 °F -7.0 °F 30.59 in Calm     74% 0.00 in
03:05 -0.9 °F -7.2 °F 30.59 in Calm     74% 0.00 in
03:10 -1.0 °F -7.3 °F 30.59 in Calm     74% 0.00 in
03:15 -1.2 °F -7.5 °F 30.59 in Calm     74% 0.00 in
03:25 -1.6 °F -7.9 °F 30.58 in Calm     74% 0.00 in
03:30 -1.8 °F -8.1 °F 30.58 in Calm     74% 0.00 in
03:35 -2.1 °F -8.4 °F 30.58 in Calm     74% 0.00 in
03:40 -2.3 °F -8.6 °F 30.58 in Calm     74% 0.00 in
03:45 -2.7 °F -8.9 °F 30.58 in Calm     74% 0.00 in
03:50 -2.9 °F -9.4 °F 30.57 in Calm     73% 0.00 in
03:55 -3.1 °F -9.3 °F 30.57 in Calm     74% 0.00 in
04:00 -3.3 °F -9.5 °F 30.57 in Calm   2.0 mph 74% 0.00 in
04:05 -3.6 °F -9.8 °F 30.57 in Calm   2.0 mph 74% 0.00 in
04:10 -3.8 °F -10.0 °F 30.58 in Calm   2.0 mph 74% 0.00 in
04:15 -3.9 °F -10.1 °F 30.58 in South 1.0 mph 3.0 mph 74% 0.00 in
04:20 -4.1 °F -10.3 °F 30.58 in South 1.0 mph 3.0 mph 74% 0.00 in
04:25 -4.1 °F -10.0 °F 30.58 in South 1.0 mph 5.0 mph 75% 0.00 in
04:30 -4.1 °F -10.0 °F 30.58 in South 2.0 mph 5.0 mph 75% 0.00 in
04:35 -4.1 °F -10.0 °F 30.58 in South 2.0 mph 4.0 mph 75% 0.00 in
04:40 -4.2 °F -9.9 °F 30.58 in South 2.0 mph 4.0 mph 76% 0.00 in
04:45 -4.2 °F -9.9 °F 30.57 in South 2.0 mph 4.0 mph 76% 0.00 in
04:50 -4.3 °F -10.0 °F 30.57 in South 2.0 mph 4.0 mph 76% 0.00 in
04:55 -4.4 °F -10.0 °F 30.58 in SSE 1.0 mph 3.0 mph 76% 0.00 in
05:05 -4.5 °F -10.1 °F 30.58 in South 1.0 mph 3.0 mph 76% 0.00 in
05:10 -4.6 °F -10.2 °F 30.58 in South 1.0 mph 3.0 mph 76% 0.00 in
05:15 -4.7 °F -10.1 °F 30.58 in South 1.0 mph 3.0 mph 77% 0.00 in
05:20 -4.7 °F -10.1 °F 30.58 in South 1.0 mph 3.0 mph 77% 0.00 in
05:25 -4.7 °F -10.1 °F 30.58 in South 1.0 mph 2.0 mph 77% 0.00 in
05:30 -4.6 °F -10.0 °F 30.58 in Calm   2.0 mph 77% 0.00 in
05:35 -4.5 °F -9.9 °F 30.58 in Calm   2.0 mph 77% 0.00 in
05:40 -4.4 °F -9.5 °F 30.58 in Calm   2.0 mph 78% 0.00 in
05:45 -4.1 °F -9.2 °F 30.58 in Calm     78% 0.00 in
05:50 -3.9 °F -9.0 °F 30.58 in Calm     78% 0.00 in
06:05 -3.3 °F -8.2 °F 30.58 in Calm     79% 0.00 in
06:10 -3.1 °F -8.0 °F 30.58 in Calm     79% 0.00 in
06:15 -2.8 °F -7.7 °F 30.58 in Calm   3.0 mph 79% 0.00 in
06:20 -2.6 °F -7.5 °F 30.58 in SE 1.0 mph 3.0 mph 79% 0.00 in
06:25 -2.3 °F -7.2 °F 30.58 in SE 1.0 mph 3.0 mph 79% 0.00 in
06:35 -2.0 °F -6.9 °F 30.58 in Calm   1.0 mph 79% 0.00 in
06:40 -1.8 °F -6.5 °F 30.57 in Calm   1.0 mph 80% 0.00 in
06:45 -1.6 °F -6.3 °F 30.57 in Calm   2.0 mph 80% 0.00 in
07:00 -1.1 °F -5.8 °F 30.57 in Calm     80% 0.00 in
07:10 -0.7 °F -5.4 °F 30.56 in ESE 1.0 mph 4.0 mph 80% 0.00 in
07:15 -0.5 °F -5.2 °F 30.56 in ESE 1.0 mph 4.0 mph 80% 0.00 in
07:20 -0.3 °F -4.7 °F 30.56 in SE 2.0 mph 3.0 mph 81% 0.00 in
07:25 0.2 °F -4.3 °F 30.56 in SE 2.0 mph 4.0 mph 81% 0.00 in
07:30 0.5 °F -4.0 °F 30.55 in SSE 1.0 mph 2.0 mph 81% 0.00 in
07:35 0.8 °F -3.7 °F 30.55 in SSE 1.0 mph 5.0 mph 81% 0.00 in
07:40 1.3 °F -3.2 °F 30.55 in South 2.0 mph 5.0 mph 81% 0.00 in
07:45 1.6 °F -2.9 °F 30.55 in South 2.0 mph 4.0 mph 81% 0.00 in
07:50 2.0 °F -2.5 °F 30.55 in South 2.0 mph 4.0 mph 81% 0.00 in
07:55 2.2 °F -2.3 °F 30.55 in South 2.0 mph 5.0 mph 81% 0.00 in
08:00 2.4 °F -2.1 °F 30.55 in South 2.0 mph 5.0 mph 81% 0.00 in
08:05 2.6 °F -1.9 °F 30.55 in South 2.0 mph 3.0 mph 81% 0.00 in
08:10 2.8 °F -1.7 °F 30.55 in SSW 3.0 mph 7.0 mph 81% 0.00 in
08:15 3.2 °F -1.3 °F 30.55 in SSW 5.0 mph 9.0 mph 81% 0.00 in
08:20 3.8 °F -0.7 °F 30.55 in SSW 4.0 mph 10.0 mph 81% 0.00 in
08:25 4.5 °F 0.0 °F 30.55 in SSW 5.0 mph 10.0 mph 81% 0.00 in
08:30 5.0 °F 0.4 °F 30.55 in SSW 5.0 mph 9.0 mph 81% 0.00 in
08:35 5.5 °F 0.7 °F 30.55 in SSW 5.0 mph 11.0 mph 80% 0.00 in
08:40 5.8 °F 0.7 °F 30.54 in SSW 6.0 mph 13.0 mph 79% 0.00 in
08:45 6.0 °F 0.9 °F 30.54 in South 2.0 mph 9.0 mph 79% 0.00 in
08:50 6.1 °F 0.7 °F 30.54 in South 10.0 mph 12.0 mph 78% 0.00 in
08:55 6.1 °F 0.4 °F 30.54 in SSW 5.0 mph 14.0 mph 77% 0.00 in
09:00 6.2 °F 0.3 °F 30.54 in SSW 6.0 mph 14.0 mph 76% 0.00 in
09:05 6.4 °F 0.4 °F 30.54 in SW 9.0 mph 12.0 mph 76% 0.00 in
09:10 6.6 °F 0.4 °F 30.54 in SSE 6.0 mph 12.0 mph 75% 0.00 in
09:20 7.0 °F 0.2 °F 30.53 in SSW 9.0 mph 12.0 mph 73% 0.00 in
09:25 7.1 °F 0.0 °F 30.53 in SSW 7.0 mph 12.0 mph 72% 0.00 in
09:30 7.5 °F -0.2 °F 30.53 in SSW 7.0 mph 13.0 mph 70% 0.00 in
09:35 8.0 °F 0.2 °F 30.52 in SW 6.0 mph 10.0 mph 70% 0.00 in
09:45 8.5 °F 0.1 °F 30.52 in SSW 4.0 mph 9.0 mph 68% 0.00 in
09:50 8.7 °F 0.0 °F 30.52 in SSW 5.0 mph 10.0 mph 67% 0.00 in
09:55 8.8 °F -0.3 °F 30.52 in SSW 5.0 mph 11.0 mph 66% 0.00 in
10:00 9.0 °F -0.4 °F 30.52 in SSW 5.0 mph 11.0 mph 65% 0.00 in
10:05 9.5 °F -0.2 °F 30.52 in South 6.0 mph 10.0 mph 64% 0.00 in
10:10 9.8 °F -0.3 °F 30.52 in SSW 5.0 mph 13.0 mph 63% 0.00 in
10:14 9.6 °F -0.5 °F 30.52 in South 8.0 mph 13.0 mph 63% 0.00 in
10:20 9.4 °F -1.4 °F 30.52 in SW 10.0 mph 13.0 mph 61% 0.00 in
10:25 9.3 °F -1.4 °F 30.52 in SSW 5.0 mph 15.0 mph 61% 0.00 in
10:30 9.6 °F -0.8 °F 30.51 in South 5.0 mph 8.0 mph 62% 0.00 in
10:35 9.9 °F -0.9 °F 30.50 in SW 6.0 mph 13.0 mph 61% 0.00 in
10:40 9.9 °F -1.2 °F 30.50 in SSW 6.0 mph 11.0 mph 60% 0.00 in
10:45 10.0 °F -1.1 °F 30.50 in SSE 7.0 mph 13.0 mph 60% 0.00 in
10:55 10.1 °F -1.4 °F 30.49 in SSW 7.0 mph 13.0 mph 59% 0.00 in
11:00 10.4 °F -0.8 °F 30.48 in SSW 7.0 mph 14.0 mph 60% 0.00 in
11:05 10.6 °F -0.9 °F 30.48 in SSW 6.0 mph 14.0 mph 59% 0.00 in
11:10 10.6 °F -0.9 °F 30.48 in SSW 8.0 mph 15.0 mph 59% 0.00 in
11:20 11.5 °F -0.4 °F 30.47 in SSW 7.0 mph 14.0 mph 58% 0.00 in
11:25 11.6 °F -0.7 °F 30.46 in SSW 7.0 mph 16.0 mph 57% 0.00 in
11:30 11.6 °F -0.7 °F 30.46 in SSW 7.0 mph 16.0 mph 57% 0.00 in
11:35 12.1 °F -0.2 °F 30.45 in SSW 6.0 mph 15.0 mph 57% 0.00 in
11:40 12.2 °F -0.1 °F 30.45 in South 6.0 mph 13.0 mph 57% 0.00 in
11:45 12.4 °F -0.3 °F 30.44 in SSW 7.0 mph 15.0 mph 56% 0.00 in
11:50 12.9 °F 0.1 °F 30.44 in SSW 6.0 mph 15.0 mph 56% 0.00 in
11:55 13.2 °F 0.4 °F 30.44 in SSW 6.0 mph 15.0 mph 56% 0.00 in
12:00 13.5 °F 0.3 °F 30.44 in SSW 7.0 mph 15.0 mph 55% 0.00 in
12:05 13.7 °F 0.1 °F 30.43 in SSW 6.0 mph 15.0 mph 54% 0.00 in
12:10 13.9 °F 0.7 °F 30.43 in SSW 6.0 mph 15.0 mph 55% 0.00 in
12:15 13.4 °F -0.2 °F 30.43 in SW 13.0 mph 14.0 mph 54% 0.00 in
12:20 13.4 °F 0.2 °F 30.42 in SSW 8.0 mph 15.0 mph 55% 0.00 in
12:30 13.7 °F 0.1 °F 30.41 in SSW 7.0 mph 17.0 mph 54% 0.00 in
12:35 14.3 °F 1.4 °F 30.41 in South 3.0 mph 11.0 mph 56% 0.00 in
12:40 14.4 °F 1.2 °F 30.40 in WSW 5.0 mph 12.0 mph 55% 0.00 in
12:45 14.2 °F 0.6 °F 30.40 in SSW 6.0 mph 13.0 mph 54% 0.00 in
12:50 14.2 °F 1.4 °F 30.39 in SW 4.0 mph 12.0 mph 56% 0.00 in
12:55 14.2 °F 1.0 °F 30.38 in SSW 6.0 mph 12.0 mph 55% 0.00 in
13:00 14.3 °F 1.4 °F 30.37 in SSW 7.0 mph 14.0 mph 56% 0.00 in
13:05 14.3 °F 0.7 °F 30.36 in SSW 7.0 mph 14.0 mph 54% 0.00 in
13:15 14.2 °F 0.6 °F 30.35 in SSW 6.0 mph 14.0 mph 54% 0.00 in
13:20 14.3 °F 0.7 °F 30.35 in SSW 7.0 mph 14.0 mph 54% 0.00 in
13:25 14.4 °F 0.8 °F 30.35 in SSW 7.0 mph 17.0 mph 54% 0.00 in
13:30 14.5 °F 0.9 °F 30.34 in South 3.0 mph 11.0 mph 54% 0.00 in
13:35 14.7 °F 1.4 °F 30.34 in SSW 6.0 mph 12.0 mph 55% 0.00 in
13:40 14.7 °F 0.6 °F 30.34 in SW 6.0 mph 14.0 mph 53% 0.00 in
13:45 14.8 °F 1.1 °F 30.34 in SW 7.0 mph 16.0 mph 54% 0.00 in
13:50 14.9 °F 0.8 °F 30.34 in SSW 7.0 mph 16.0 mph 53% 0.00 in
13:55 15.1 °F 1.4 °F 30.33 in SW 5.0 mph 10.0 mph 54% 0.00 in
14:00 15.2 °F 1.5 °F 30.33 in SSW 6.0 mph 12.0 mph 54% 0.00 in
14:05 15.3 °F 1.6 °F 30.32 in SSW 6.0 mph 13.0 mph 54% 0.00 in
14:15 15.4 °F 1.3 °F 30.31 in SSW 7.0 mph 16.0 mph 53% 0.00 in
14:20 15.4 °F 1.7 °F 30.31 in SW 4.0 mph 11.0 mph 54% 0.00 in
14:25 15.5 °F 1.8 °F 30.30 in SSW 4.0 mph 14.0 mph 54% 0.00 in
14:30 15.8 °F 2.5 °F 30.30 in SSW 6.0 mph 14.0 mph 55% 0.00 in
14:35 16.1 °F 2.4 °F 30.29 in SSW 5.0 mph 15.0 mph 54% 0.00 in
14:40 16.3 °F 2.1 °F 30.29 in SSW 6.0 mph 15.0 mph 53% 0.00 in
14:45 16.5 °F 2.3 °F 30.29 in SSW 6.0 mph 14.0 mph 53% 0.00 in
14:50 16.8 °F 2.6 °F 30.29 in SSW 6.0 mph 12.0 mph 53% 0.00 in
14:55 17.0 °F 2.4 °F 30.28 in SSW 5.0 mph 13.0 mph 52% 0.00 in
15:00 17.1 °F 2.9 °F 30.28 in SW 7.0 mph 13.0 mph 53% 0.00 in
15:05 17.2 °F 2.6 °F 30.27 in SSW 5.0 mph 14.0 mph 52% 0.00 in
15:10 17.4 °F 3.2 °F 30.27 in SSW 7.0 mph 14.0 mph 53% 0.00 in
15:15 17.6 °F 3.3 °F 30.26 in South 3.0 mph 13.0 mph 53% 0.00 in
15:20 17.7 °F 3.0 °F 30.26 in SSW 6.0 mph 14.0 mph 52% 0.00 in
15:25 17.9 °F 2.8 °F 30.26 in SSW 7.0 mph 14.0 mph 51% 0.00 in
15:30 18.1 °F 3.0 °F 30.25 in SSW 7.0 mph 17.0 mph 51% 0.00 in
15:35 18.3 °F 3.2 °F 30.25 in SW 7.0 mph 14.0 mph 51% 0.00 in
15:40 18.6 °F 3.0 °F 30.24 in SSE 8.0 mph 17.0 mph 50% 0.00 in
15:50 19.0 °F 3.8 °F 30.24 in WSW 8.0 mph 12.0 mph 51% 0.00 in
15:55 19.3 °F 3.7 °F 30.24 in SSW 7.0 mph 13.0 mph 50% 0.00 in
16:00 19.5 °F 3.4 °F 30.24 in SSW 7.0 mph 13.0 mph 49% 0.00 in
16:05 19.7 °F 4.0 °F 30.24 in SW 8.0 mph 11.0 mph 50% 0.00 in
16:10 19.9 °F 3.8 °F 30.24 in SSW 8.0 mph 14.0 mph 49% 0.00 in
16:15 20.0 °F 3.9 °F 30.23 in SSW 5.0 mph 11.0 mph 49% 0.00 in
16:20 20.1 °F 4.0 °F 30.23 in SSW 6.0 mph 15.0 mph 49% 0.00 in
16:30 20.6 °F 4.4 °F 30.22 in SSW 7.0 mph 15.0 mph 49% 0.00 in
16:39 20.7 °F 4.5 °F 30.21 in SSE 5.0 mph 15.0 mph 49% 0.00 in
16:45 20.8 °F 4.6 °F 30.21 in SSW 7.0 mph 15.0 mph 49% 0.00 in
16:54 20.8 °F 5.1 °F 30.21 in SSW 8.0 mph 10.0 mph 50% 0.00 in
16:59 20.9 °F 4.7 °F 30.21 in SSW 6.0 mph 12.0 mph 49% 0.00 in
17:05 21.0 °F 4.4 °F 30.21 in SSW 7.0 mph 16.0 mph 48% 0.00 in
17:15 21.1 °F 4.9 °F 30.20 in SSW 8.0 mph 18.0 mph 49% 0.00 in
17:20 21.1 °F 4.9 °F 30.20 in SSW 7.0 mph 14.0 mph 49% 0.00 in
17:30 21.2 °F 5.4 °F 30.20 in SSW 7.0 mph 15.0 mph 50% 0.00 in
17:35 21.2 °F 5.4 °F 30.20 in SSW 8.0 mph 18.0 mph 50% 0.00 in
17:40 21.3 °F 5.5 °F 30.19 in SSW 8.0 mph 18.0 mph 50% 0.00 in
17:50 21.3 °F 5.5 °F 30.19 in SSW 8.0 mph 18.0 mph 50% 0.00 in
17:59 21.4 °F 6.5 °F 30.19 in SW 6.0 mph 15.0 mph 52% 0.00 in
18:04 21.5 °F 7.0 °F 30.18 in SSW 8.0 mph 17.0 mph 53% 0.00 in
18:10 21.5 °F 7.0 °F 30.18 in SSW 8.0 mph 17.0 mph 53% 0.00 in
18:15 21.6 °F 7.5 °F 30.17 in South 5.0 mph 16.0 mph 54% 0.00 in
18:20 21.7 °F 8.0 °F 30.17 in SSW 7.0 mph 16.0 mph 55% 0.00 in
18:25 21.8 °F 8.5 °F 30.17 in SSW 7.0 mph 17.0 mph 56% 0.00 in
18:30 21.9 °F 8.6 °F 30.17 in SSW 7.0 mph 17.0 mph 56% 0.00 in
18:35 22.0 °F 8.7 °F 30.17 in SSW 6.0 mph 18.0 mph 56% 0.00 in
18:40 22.2 °F 8.9 °F 30.17 in SW 7.0 mph 14.0 mph 56% 0.00 in
18:45 22.3 °F 9.0 °F 30.17 in SSW 7.0 mph 20.0 mph 56% 0.00 in
18:49 22.4 °F 9.4 °F 30.17 in SSW 7.0 mph 20.0 mph 57% 0.00 in
18:54 22.5 °F 9.5 °F 30.17 in South 6.0 mph 13.0 mph 57% 0.00 in
19:05 22.7 °F 10.5 °F 30.17 in WSW 6.0 mph 12.0 mph 59% 0.00 in
19:09 22.8 °F 10.6 °F 30.17 in SW 7.0 mph 18.0 mph 59% 0.00 in
19:14 22.9 °F 11.1 °F 30.16 in SSW 7.0 mph 18.0 mph 60% 0.00 in
19:25 23.1 °F 12.0 °F 30.15 in SSW 7.0 mph 16.0 mph 62% 0.00 in
19:30 23.2 °F 12.1 °F 30.15 in SSW 7.0 mph 14.0 mph 62% 0.00 in
19:40 23.4 °F 12.6 °F 30.14 in SSW 6.0 mph 13.0 mph 63% 0.00 in
19:45 23.5 °F 13.1 °F 30.14 in SW 8.0 mph 11.0 mph 64% 0.00 in
19:55 23.8 °F 13.4 °F 30.13 in SW 6.0 mph 15.0 mph 64% 0.00 in
20:00 23.9 °F 13.5 °F 30.13 in SSW 6.0 mph 15.0 mph 64% 0.00 in
20:04 24.0 °F 13.6 °F 30.13 in SSW 4.0 mph 16.0 mph 64% 0.00 in
20:09 24.1 °F 14.0 °F 30.12 in SW 6.0 mph 15.0 mph 65% 0.00 in
20:15 24.3 °F 14.2 °F 30.12 in SSW 6.0 mph 15.0 mph 65% 0.00 in
20:20 24.5 °F 14.4 °F 30.12 in SSW 7.0 mph 13.0 mph 65% 0.00 in
20:25 24.6 °F 14.5 °F 30.12 in South 11.0 mph 13.0 mph 65% 0.00 in
20:30 24.8 °F 14.7 °F 30.12 in SSW 7.0 mph 14.0 mph 65% 0.00 in
20:40 25.1 °F 14.3 °F 30.11 in SSW 7.0 mph 18.0 mph 63% 0.00 in
20:45 25.2 °F 14.4 °F 30.11 in SW 8.0 mph 15.0 mph 63% 0.00 in
20:50 25.3 °F 14.5 °F 30.11 in SSW 6.0 mph 15.0 mph 63% 0.00 in
20:54 25.4 °F 14.2 °F 30.10 in SSW 6.0 mph 21.0 mph 62% 0.00 in
21:00 25.5 °F 14.3 °F 30.10 in SSW 7.0 mph 21.0 mph 62% 0.00 in
21:05 25.6 °F 14.0 °F 30.10 in SW 12.0 mph 14.0 mph 61% 0.00 in
21:10 25.7 °F 14.1 °F 30.09 in SSW 7.0 mph 17.0 mph 61% 0.00 in
21:25 25.9 °F 14.3 °F 30.09 in SW 6.0 mph 13.0 mph 61% 0.00 in
21:30 26.0 °F 14.0 °F 30.09 in South 8.0 mph 15.0 mph 60% 0.00 in
21:50 26.4 °F 14.0 °F 30.09 in SSW 7.0 mph 15.0 mph 59% 0.00 in
22:10 26.5 °F 14.1 °F 30.09 in WSW 5.0 mph 16.0 mph 59% 0.00 in
22:20 26.6 °F 13.8 °F 30.09 in WSW 10.0 mph 19.0 mph 58% 0.00 in
22:50 27.4 °F 14.1 °F 30.09 in SSW 7.0 mph 18.0 mph 57% 0.00 in
22:55 27.4 °F 14.1 °F 30.09 in SW 7.0 mph 17.0 mph 57% 0.00 in
Buffalo, New York, USA
Compliments of Weather Underground - 2 mb